• Join FlightAware (Why Join?)
  • Login
  • US Flag 
05:41AM EDT


 

Airport Tracker/Info


-or-


 

Live Flight TrackerFlight Track Log ✈ XOJ552 ✈ 04-Jul-2013 ✈ KSLK - KTEB

Flight Track Log - Related Links

Times and Time Zones

All times are in EDT time to prevent confusion due to time zone crossing. See the XOJ552 flight status page for this flight to view local times or setup timezone preferences in your user account.

Time Position Orientation Groundspeed Altitude Reporting Facility
EDT Latitude Longitude Course Direction KTS MPH feet Rate Location/Type
04:56PM 44.2558 -74.2256 186° South 329 379 11,200  Level Boston Center
04:57PM 44.1686 -74.2028 169° South 313 360 14,700 3,600 Climbing Boston Center
04:58PM 44.0772 -74.1769 169° South 320 368 18,400 3,540 Climbing Boston Center
04:59PM 43.9778 -74.1481 168° South 341 392 21,800 1,800 Climbing Boston Center
05:00PM 43.8678 -74.1161 168° South 378 435 22,000 60 Climbing Boston Center
05:01PM 43.7558 -74.0842 168° South 395 455 22,000  Level Boston Center
05:02PM 43.6561 -74.0558 168° South 408 470 22,000  Level Boston Center
05:03PM 43.5461 -74.0269 169° South 408 470 22,000  Level Boston Center
05:04PM 43.4361 -73.9956 168° South 408 470 22,000  Level Boston Center
05:05PM 43.3156 -73.9639 169° South 408 470 22,000  Level Boston Center
05:06PM 43.2056 -73.9328 168° South 408 470 22,000  Level Boston Center
05:07PM 43.0997 -73.9017 168° South 408 470 22,000 -120 Level Boston Center
05:08PM 42.9894 -73.8733 169° South 408 470 21,800 -1,080 Descending Boston Center
05:10PM 42.8836 -73.8428 168° South 403 464 19,700 -1,920 Descending Boston Center
05:11PM 42.7714 -73.8175 171° South 389 448 17,700 -1,980 Descending Boston Center
05:12PM 42.6814 -73.8578 198° South 356 410 15,800 -1,740 Descending Boston Center
05:13PM 42.6161 -73.9072 209° Southwest 347 399 14,300 -900 Descending Boston Center
05:14PM 42.5150 -73.9781 207° Southwest 319 367 14,100 -120 Descending Boston Center
05:15PM 42.4392 -74.0325 208° Southwest 319 367 14,100  Level Boston Center
05:16PM 42.3614 -74.0894 208° Southwest 313 360 14,100 -60 Level Boston Center
05:17PM 42.2856 -74.1464 209° Southwest 313 360 14,000 -60 Descending Boston Center
05:18PM 42.2094 -74.2031 209° Southwest 319 367 14,000  Level Boston Center
05:19PM 42.1294 -74.2597 208° Southwest 319 367 14,000  Level Boston Center
05:20PM 42.0433 -74.3019 200° South 326 375 14,000  Level Boston Center
05:21PM 41.9508 -74.3439 199° South 344 396 14,000 -240 Level Boston Center
05:22PM 41.8606 -74.3831 198° South 349 402 13,600 -1,020 Descending Boston Center
05:23PM 41.7786 -74.4194 198° South 339 390 12,000 -1,620 Descending Boston Center
05:24PM 41.7050 -74.4561 200° South 304 350 10,400 -1,500 Descending Boston Center
05:25PM 41.6336 -74.4872 198° South 289 333 9,000 -1,620 Descending Boston Center
05:26PM 41.5603 -74.5181 197° South 284 327 7,200 -1,500 Descending Boston Center
05:27PM 41.4908 -74.5492 199° South 284 327 6,000 -420 Descending Boston Center
05:29PM 41.3500 -74.5500 180° South 287 330 6,000 -300 Level New York TRACON
05:30PM 41.3000 -74.4667 129° Southeast 286 329 5,200 -900 Descending New York TRACON
05:31PM 41.2333 -74.3833 137° Southeast 289 333 4,200 -600 Descending New York TRACON
05:32PM 41.2000 -74.3167 124° Southeast 279 321 4,100 -600 Descending New York TRACON
05:33PM 41.1500 -74.2500 135° Southeast 268 308 3,100 -540 Descending New York TRACON
05:34PM 41.1000 -74.1667 129° Southeast 267 307 3,100 -420 Level New York TRACON
05:35PM 41.0500 -74.1167 143° Southeast 263 303 2,300 -540 Descending New York TRACON
05:36PM 41.0000 -74.0833 153° Southeast 207 238 2,100 -180 Descending New York TRACON
05:37PM 40.9500 -74.0500 153° Southeast 176 203 2,000 -540 Descending New York TRACON
05:38PM 40.9000 -74.0500 180° South 149 171 1,100 -840 Descending New York TRACON
05:39PM 40.8667 -74.0500 180° South 123 142 400 -720 Descending New York TRACON